createdAt,value
2019-02-26T00:00:16.936Z,98207.25
2019-02-26T00:02:46.535Z,98211.30
2019-02-26T00:05:17.346Z,98202.69
2019-02-26T00:07:41.707Z,98202.45
2019-02-26T00:10:09.259Z,98195.16
2019-02-26T00:12:35.859Z,98197.05
2019-02-26T00:15:06.557Z,98197.86
2019-02-26T00:17:36.222Z,98197.86
2019-02-26T00:20:01.343Z,98197.31
2019-02-26T00:22:29.572Z,98194.34
2019-02-26T00:24:56.179Z,98192.72
2019-02-26T00:27:23.525Z,98185.74
2019-02-26T00:29:53.012Z,98181.14
2019-02-26T00:32:19.573Z,98184.91
2019-02-26T00:34:46.015Z,98176.02
2019-02-26T00:37:12.470Z,98162.01
2019-02-26T00:39:38.930Z,98158.52
2019-02-26T00:42:05.445Z,98152.59
2019-02-26T00:44:32.782Z,98146.94
2019-02-26T00:47:04.841Z,98142.34
2019-02-26T00:49:31.050Z,98134.55
2019-02-26T00:51:57.386Z,98124.59
2019-02-26T00:54:24.507Z,98119.19
2019-02-26T00:56:52.156Z,98121.62
2019-02-26T00:59:18.599Z,98119.19
2019-02-26T01:01:46.371Z,98114.33
2019-02-26T01:04:13.701Z,98106.78
2019-02-26T01:06:40.089Z,98107.03
2019-02-26T01:09:10.701Z,98095.73
2019-02-26T01:11:36.154Z,98088.44
2019-02-26T01:14:02.607Z,98082.24
2019-02-26T01:16:29.057Z,98071.44
2019-02-26T01:18:55.931Z,98070.34
2019-02-26T01:21:26.231Z,98074.37
2019-02-26T01:23:51.371Z,98085.91
2019-02-26T01:26:17.674Z,98080.24
2019-02-26T01:28:46.206Z,98065.62
2019-02-26T01:31:12.305Z,98054.83
2019-02-26T01:33:38.819Z,98057.22
2019-02-26T01:36:05.274Z,98057.76
2019-02-26T01:38:31.586Z,98061.58
2019-02-26T01:40:58.231Z,98054.05
2019-02-26T01:43:24.518Z,98063.52
2019-02-26T01:45:53.086Z,98060.29
2019-02-26T01:48:19.508Z,98066.16
2019-02-26T01:50:47.849Z,98072.02
2019-02-26T01:53:15.294Z,98079.48
2019-02-26T01:55:46.035Z,98069.73
2019-02-26T01:58:16.572Z,98060.77
2019-02-26T02:00:42.453Z,98067.74
2019-02-26T02:03:08.766Z,98059.06
2019-02-26T02:05:35.240Z,98062.01
2019-02-26T02:08:01.845Z,98064.39
2019-02-26T02:10:28.253Z,98050.30
2019-02-26T02:12:57.320Z,98046.77
2019-02-26T02:15:23.914Z,98031.33
2019-02-26T02:17:50.562Z,98032.66
2019-02-26T02:20:21.291Z,98030.72
2019-02-26T02:22:45.326Z,98019.36
2019-02-26T02:25:11.715Z,98010.41
2019-02-26T02:27:38.426Z,98014.45
2019-02-26T02:30:22.529Z,98000.94
2019-02-26T02:32:50.420Z,97988.79
2019-02-26T02:35:15.403Z,97983.65
2019-02-26T02:37:41.322Z,97981.74
2019-02-26T02:40:10.627Z,97975.78
2019-02-26T02:42:37.707Z,97976.00
2019-02-26T02:45:13.545Z,97975.97
2019-02-26T02:47:39.117Z,97977.80
2019-02-26T02:50:15.107Z,97981.78
2019-02-26T02:52:42.313Z,97986.08
2019-02-26T02:55:12.920Z,97989.05
2019-02-26T02:57:38.107Z,97987.96
2019-02-26T03:00:15.345Z,97982.77
2019-02-26T03:02:43.246Z,97976.81
2019-02-26T03:05:11.848Z,97974.66
2019-02-26T03:07:38.437Z,97968.43
2019-02-26T03:10:12.066Z,97980.58
2019-02-26T03:12:38.512Z,97978.63
2019-02-26T03:15:15.271Z,97975.38
2019-02-26T03:17:41.898Z,97979.98
2019-02-26T03:20:11.283Z,97974.59
2019-02-26T03:22:39.706Z,97978.65
2019-02-26T03:25:10.439Z,97975.45
2019-02-26T03:27:39.909Z,97969.78
2019-02-26T03:30:26.427Z,97972.75
2019-02-26T03:32:55.751Z,97966.53
2019-02-26T03:35:16.697Z,97960.58
2019-02-26T03:37:44.531Z,97947.06
2019-02-26T03:40:13.102Z,97939.78
2019-02-26T03:42:41.628Z,97943.02
2019-02-26T03:45:12.359Z,97948.16
2019-02-26T03:47:40.628Z,97943.84
2019-02-26T03:50:14.601Z,97946.26
2019-02-26T03:52:42.790Z,97929.23
2019-02-26T03:55:11.485Z,97910.59
2019-02-26T03:57:41.107Z,97905.73
2019-02-26T04:00:14.932Z,97908.17
2019-02-26T04:02:45.530Z,97908.72
2019-02-26T04:05:12.751Z,97909.81
2019-02-26T04:07:39.282Z,97915.22
2019-02-26T04:10:07.988Z,97926.34
2019-02-26T04:12:39.238Z,97920.94
2019-02-26T04:15:12.707Z,97923.38
2019-02-26T04:17:40.175Z,97916.34
2019-02-26T04:20:10.068Z,97919.84
2019-02-26T04:22:39.195Z,97915.80
2019-02-26T04:25:35.525Z,97915.80
2019-02-26T04:28:18.860Z,97919.53
2019-02-26T04:31:00.033Z,97913.58
2019-02-26T04:34:07.919Z,97910.88
2019-02-26T04:37:01.554Z,97907.91
2019-02-26T04:40:02.389Z,97908.46
2019-02-26T04:43:04.555Z,97903.37
2019-02-26T04:45:59.384Z,97911.22
2019-02-26T04:48:34.341Z,97914.75
2019-02-26T04:51:01.344Z,97902.04
2019-02-26T04:53:28.796Z,97886.37
2019-02-26T04:55:57.478Z,97887.72
2019-02-26T04:58:24.152Z,97878.00
2019-02-26T05:00:50.814Z,97883.14
2019-02-26T05:03:19.801Z,97886.39
2019-02-26T05:05:45.309Z,97882.05
2019-02-26T05:08:12.840Z,97882.03
2019-02-26T05:10:40.087Z,97888.77
2019-02-26T05:13:09.405Z,97878.45
2019-02-26T05:15:34.725Z,97888.69
2019-02-26T05:18:01.121Z,97898.16
2019-02-26T05:20:27.802Z,97888.69
2019-02-26T05:22:54.771Z,97897.06
2019-02-26T05:25:22.549Z,97899.50
2019-02-26T05:27:50.887Z,97890.33
2019-02-26T05:30:19.509Z,97910.08
2019-02-26T05:32:45.431Z,97898.52
2019-02-26T05:35:13.739Z,97907.70
2019-02-26T05:37:40.975Z,97906.11
2019-02-26T05:40:12.179Z,97894.81
2019-02-26T05:42:35.835Z,97895.35
2019-02-26T05:45:08.416Z,97897.52
2019-02-26T05:47:32.526Z,97892.66
2019-02-26T05:49:59.560Z,97889.41
2019-02-26T05:52:29.941Z,97884.77
2019-02-26T05:54:55.645Z,97891.25
2019-02-26T05:57:27.704Z,97887.72
2019-02-26T05:59:50.238Z,97900.97
2019-02-26T06:02:21.129Z,97894.47
2019-02-26T06:04:46.732Z,97892.86
2019-02-26T06:07:13.438Z,97888.00
2019-02-26T06:09:39.828Z,97887.20
2019-02-26T06:12:06.287Z,97886.70
2019-02-26T06:14:36.127Z,97886.94
2019-02-26T06:17:02.791Z,97889.95
2019-02-26T06:19:44.777Z,97887.79
2019-02-26T06:22:14.474Z,97894.81
2019-02-26T06:24:39.553Z,97897.74
2019-02-26T06:27:08.604Z,97893.12
2019-02-26T06:29:37.376Z,97894.19
2019-02-26T06:32:16.829Z,97900.13
2019-02-26T06:34:43.667Z,97903.31
2019-02-26T06:37:19.246Z,97903.58
2019-02-26T06:39:45.602Z,97910.88
2019-02-26T06:42:14.420Z,97916.27
2019-02-26T06:44:41.381Z,97910.34
2019-02-26T06:47:09.185Z,97911.95
2019-02-26T06:49:35.788Z,97911.14
2019-02-26T06:52:02.606Z,97908.98
2019-02-26T06:54:31.731Z,97906.55
2019-02-26T06:56:57.452Z,97907.35
2019-02-26T06:59:34.946Z,97911.92
2019-02-26T07:02:00.947Z,97923.00
2019-02-26T07:04:30.138Z,97936.52
2019-02-26T07:06:57.508Z,97924.09
2019-02-26T07:09:25.208Z,97910.84
2019-02-26T07:11:51.627Z,97908.95
2019-02-26T07:14:17.965Z,97905.17
2019-02-26T07:16:44.270Z,97905.66
2019-02-26T07:19:12.390Z,97902.96
2019-02-26T07:21:40.598Z,97908.62
2019-02-26T07:24:07.831Z,97892.39
2019-02-26T07:26:36.170Z,97904.00
2019-02-26T07:29:03.894Z,97898.03
2019-02-26T07:31:32.755Z,97905.62
2019-02-26T07:34:01.362Z,97901.56
2019-02-26T07:36:28.240Z,97898.86
2019-02-26T07:38:56.470Z,97898.05
2019-02-26T07:41:23.620Z,97909.41
2019-02-26T07:43:51.929Z,97914.56
2019-02-26T07:46:21.499Z,97912.66
2019-02-26T07:48:48.867Z,97903.74
2019-02-26T07:51:16.883Z,97909.15
2019-02-26T07:53:47.949Z,97910.50
2019-02-26T07:56:11.755Z,97911.03
2019-02-26T07:58:38.945Z,97905.34
2019-02-26T08:01:06.552Z,97903.93
2019-02-26T08:03:32.991Z,97911.78
2019-02-26T08:06:04.032Z,97915.89
2019-02-26T08:08:28.198Z,97912.40
2019-02-26T08:10:54.595Z,97916.47
2019-02-26T08:13:20.881Z,97902.47
2019-02-26T08:15:47.298Z,97912.50
2019-02-26T08:18:13.889Z,97906.56
2019-02-26T08:20:40.398Z,97897.96
2019-02-26T08:23:06.808Z,97902.84
2019-02-26T08:25:33.264Z,97912.33
2019-02-26T08:28:01.285Z,97919.08
2019-02-26T08:30:27.934Z,97919.36
2019-02-26T08:32:56.084Z,97931.03
2019-02-26T08:35:22.671Z,97938.61
2019-02-26T08:37:49.474Z,97939.44
2019-02-26T08:40:16.009Z,97938.37
2019-02-26T08:42:43.395Z,97942.42
2019-02-26T08:45:15.140Z,97940.03
2019-02-26T08:47:41.585Z,97929.23
2019-02-26T08:50:12.442Z,97910.61
2019-02-26T08:52:39.080Z,97919.54
2019-02-26T08:55:10.670Z,97917.92
2019-02-26T08:57:37.307Z,97925.25
2019-02-26T09:00:11.800Z,97921.98
2019-02-26T09:02:38.285Z,97917.92
2019-02-26T09:05:09.874Z,97919.05
2019-02-26T09:07:37.864Z,97917.43
2019-02-26T09:10:17.929Z,97914.73
2019-02-26T09:12:46.919Z,97919.05
2019-02-26T09:15:16.945Z,97913.37
2019-02-26T09:17:43.304Z,97915.22
2019-02-26T09:20:15.145Z,97908.19
2019-02-26T09:22:45.765Z,97912.50
2019-02-26T09:25:11.231Z,97918.71
2019-02-26T09:27:42.845Z,97929.78
2019-02-26T09:30:14.031Z,97929.78
2019-02-26T09:32:44.130Z,97932.48
2019-02-26T09:35:13.223Z,97925.99
2019-02-26T09:37:39.621Z,97940.03
2019-02-26T09:40:10.967Z,97929.45
2019-02-26T09:42:37.466Z,97920.57
2019-02-26T09:45:08.991Z,97932.16
2019-02-26T09:47:35.320Z,97925.17
2019-02-26T09:50:01.702Z,97936.47
2019-02-26T09:52:30.221Z,97920.26
2019-02-26T09:54:56.653Z,97914.31
2019-02-26T09:57:24.222Z,97911.33
2019-02-26T09:59:52.298Z,97905.09
2019-02-26T10:02:21.953Z,97902.60
2019-02-26T10:04:49.612Z,97903.13
2019-02-26T10:07:16.938Z,97896.63
2019-02-26T10:09:46.591Z,97881.22
2019-02-26T10:12:13.475Z,97886.84
2019-02-26T10:14:39.891Z,97886.30
2019-02-26T10:17:06.658Z,97885.73
2019-02-26T10:19:35.518Z,97877.08
2019-02-26T10:22:05.597Z,97875.17
2019-02-26T10:24:32.170Z,97876.53
2019-02-26T10:27:00.755Z,97878.14
2019-02-26T10:29:26.524Z,97884.03
2019-02-26T10:31:56.095Z,97886.72
2019-02-26T10:34:25.025Z,97882.66
2019-02-26T10:36:51.890Z,97886.44
2019-02-26T10:39:20.485Z,97882.91
2019-02-26T10:41:46.740Z,97866.94
2019-02-26T10:44:14.729Z,97868.30
2019-02-26T10:46:42.761Z,97869.05
2019-02-26T10:49:09.823Z,97864.42
2019-02-26T10:51:36.331Z,97871.36
2019-02-26T10:54:03.540Z,97868.38
2019-02-26T10:56:36.281Z,97871.28
2019-02-26T10:59:03.475Z,97869.88
2019-02-26T11:01:30.482Z,97863.86
2019-02-26T11:03:56.324Z,97862.22
2019-02-26T11:06:22.834Z,97865.48
2019-02-26T11:08:51.208Z,97869.27
2019-02-26T11:11:19.123Z,97867.66
2019-02-26T11:13:50.905Z,97864.67
2019-02-26T11:16:17.055Z,97861.42
2019-02-26T11:18:42.727Z,97868.70
2019-02-26T11:21:10.399Z,97861.94
2019-02-26T11:23:38.645Z,97859.75
2019-02-26T11:26:06.700Z,97859.49
2019-02-26T11:28:37.886Z,97867.31
2019-02-26T11:31:01.652Z,97874.08
2019-02-26T11:33:28.185Z,97865.11
2019-02-26T11:35:54.570Z,97871.00
2019-02-26T11:38:22.040Z,97867.98
2019-02-26T11:40:48.811Z,97870.38
2019-02-26T11:43:19.367Z,97866.84
2019-02-26T11:45:44.535Z,97871.09
2019-02-26T11:48:11.010Z,97867.55
2019-02-26T11:50:37.327Z,97868.62
2019-02-26T11:53:03.618Z,97861.30
2019-02-26T11:55:32.463Z,97868.06
2019-02-26T11:58:00.130Z,97872.41
2019-02-26T12:00:42.806Z,97868.62
2019-02-26T12:03:09.739Z,97862.59
2019-02-26T12:05:38.877Z,97861.47
2019-02-26T12:08:04.750Z,97862.53
2019-02-26T12:10:32.484Z,97865.73
2019-02-26T12:13:02.168Z,97863.25
2019-02-26T12:15:30.125Z,97861.25
2019-02-26T12:17:58.641Z,97864.12
2019-02-26T12:20:25.022Z,97863.19
2019-02-26T12:22:52.359Z,97858.77
2019-02-26T12:25:19.798Z,97860.48
2019-02-26T12:27:48.207Z,97845.41
2019-02-26T12:30:22.890Z,97848.27
2019-02-26T12:32:49.916Z,97847.14
2019-02-26T12:35:18.028Z,97843.03
2019-02-26T12:37:44.618Z,97842.13
2019-02-26T12:40:19.206Z,97836.92
2019-02-26T12:42:44.807Z,97841.42
2019-02-26T12:45:20.379Z,97840.52
2019-02-26T12:47:49.385Z,97838.57
2019-02-26T12:50:20.093Z,97829.99
2019-02-26T12:52:47.496Z,97835.40
2019-02-26T12:55:14.843Z,97834.28
2019-02-26T12:57:43.302Z,97832.58
2019-02-26T13:00:23.018Z,97833.43
2019-02-26T13:02:49.454Z,97831.94
2019-02-26T13:05:22.916Z,97834.00
2019-02-26T13:07:48.164Z,97827.02
2019-02-26T13:10:23.218Z,97824.40
2019-02-26T13:12:54.018Z,97822.72
2019-02-26T13:15:21.762Z,97816.78
2019-02-26T13:17:53.235Z,97811.48
2019-02-26T13:20:27.390Z,97818.31
2019-02-26T13:23:00.516Z,97820.84
2019-02-26T13:25:26.362Z,97828.18
2019-02-26T13:27:50.475Z,97828.18
2019-02-26T13:30:24.463Z,97823.36
2019-02-26T13:32:56.268Z,97824.58
2019-02-26T13:35:20.252Z,97825.55
2019-02-26T13:37:49.987Z,97817.75
2019-02-26T13:40:22.931Z,97810.88
2019-02-26T13:42:56.588Z,97806.17
2019-02-26T13:45:19.991Z,97808.82
2019-02-26T13:47:46.623Z,97816.95
2019-02-26T13:50:21.009Z,97813.98
2019-02-26T13:52:47.348Z,97812.81
2019-02-26T13:55:13.738Z,97801.56
2019-02-26T13:57:40.075Z,97800.38
2019-02-26T14:00:12.482Z,97795.59
2019-02-26T14:02:38.914Z,97791.36
2019-02-26T14:05:09.610Z,97799.92
2019-02-26T14:07:35.911Z,97792.59
2019-02-26T14:10:09.452Z,97796.23
2019-02-26T14:12:36.335Z,97788.44
2019-02-26T14:15:06.832Z,97781.27
2019-02-26T14:17:33.901Z,97782.50
2019-02-26T14:20:00.335Z,97778.77
2019-02-26T14:22:26.731Z,97779.40
2019-02-26T14:24:53.887Z,97779.23
2019-02-26T14:27:20.738Z,97784.98
2019-02-26T14:29:47.211Z,97785.83
2019-02-26T14:32:13.554Z,97777.11
2019-02-26T14:34:40.342Z,97777.03
2019-02-26T14:37:06.679Z,97780.80
2019-02-26T14:39:33.059Z,97768.81
2019-02-26T14:41:59.512Z,97765.47
2019-02-26T14:44:25.803Z,97758.95
2019-02-26T14:46:52.475Z,97754.84
2019-02-26T14:49:19.159Z,97755.56
2019-02-26T14:51:45.539Z,97758.48
2019-02-26T14:54:11.825Z,97758.73
2019-02-26T14:56:38.229Z,97763.05
2019-02-26T14:59:04.692Z,97755.73
2019-02-26T15:01:31.100Z,97755.22
2019-02-26T15:03:57.521Z,97759.54
2019-02-26T15:06:23.851Z,97756.88
2019-02-26T15:08:50.401Z,97754.47
2019-02-26T15:11:16.828Z,97760.94
2019-02-26T15:13:43.692Z,97755.52
2019-02-26T15:16:10.024Z,97758.48
2019-02-26T15:18:36.799Z,97760.89
2019-02-26T15:21:03.387Z,97757.00
2019-02-26T15:23:29.860Z,97765.09
2019-02-26T15:25:56.271Z,97762.08
2019-02-26T15:28:22.802Z,97767.98
2019-02-26T15:30:49.337Z,97761.78
2019-02-26T15:33:15.817Z,97767.50
2019-02-26T15:35:42.413Z,97772.17
2019-02-26T15:38:08.859Z,97760.09
2019-02-26T15:40:35.174Z,97765.38
2019-02-26T15:43:01.607Z,97769.59
2019-02-26T15:45:29.677Z,97781.39
2019-02-26T15:47:56.285Z,97791.55
2019-02-26T15:50:22.632Z,97788.44
2019-02-26T15:52:52.625Z,97794.52
2019-02-26T15:55:25.932Z,97791.89
2019-02-26T15:57:52.240Z,97789.59
2019-02-26T16:00:24.804Z,97795.08
2019-02-26T16:02:52.399Z,97796.48
2019-02-26T16:05:22.355Z,97801.13
2019-02-26T16:07:48.632Z,97802.59
2019-02-26T16:10:15.139Z,97791.35
2019-02-26T16:12:41.736Z,97790.95
2019-02-26T16:15:14.853Z,97786.70
2019-02-26T16:17:41.256Z,97781.20
2019-02-26T16:20:19.618Z,97786.44
2019-02-26T16:22:45.923Z,97792.75
2019-02-26T16:25:12.251Z,97803.67
2019-02-26T16:27:38.559Z,97806.16
2019-02-26T16:30:20.562Z,97808.41
2019-02-26T16:32:48.830Z,97821.98
2019-02-26T16:35:15.377Z,97829.61
2019-02-26T16:37:42.184Z,97821.27
2019-02-26T16:40:12.636Z,97824.81
2019-02-26T16:42:38.959Z,97831.60
2019-02-26T16:45:10.556Z,97831.89
2019-02-26T16:47:39.254Z,97833.24
2019-02-26T16:50:13.390Z,97822.97
2019-02-26T16:52:40.063Z,97834.11
2019-02-26T16:55:13.451Z,97839.52
2019-02-26T16:57:38.314Z,97844.93
2019-02-26T17:00:16.438Z,97840.33
2019-02-26T17:02:43.200Z,97837.65
2019-02-26T17:05:09.622Z,97847.41
2019-02-26T17:07:37.934Z,97846.05
2019-02-26T17:10:12.507Z,97839.29
2019-02-26T17:12:38.794Z,97849.28
2019-02-26T17:15:16.028Z,97844.41
2019-02-26T17:17:42.319Z,97842.00
2019-02-26T17:20:08.922Z,97849.85
2019-02-26T17:22:35.867Z,97854.20
2019-02-26T17:25:04.575Z,97859.93
2019-02-26T17:27:31.031Z,97858.83
2019-02-26T17:29:57.320Z,97858.86
2019-02-26T17:32:23.722Z,97864.55
2019-02-26T17:34:50.139Z,97864.91
2019-02-26T17:37:16.816Z,97874.66
2019-02-26T17:39:43.212Z,97871.72
2019-02-26T17:42:09.523Z,97866.08
2019-02-26T17:44:35.840Z,97876.64
2019-02-26T17:47:02.148Z,97879.63
2019-02-26T17:49:28.550Z,97869.62
2019-02-26T17:51:54.899Z,97868.83
2019-02-26T17:54:21.538Z,97875.11
2019-02-26T17:56:48.066Z,97865.66
2019-02-26T17:59:17.355Z,97872.71
2019-02-26T18:01:44.011Z,97875.98
2019-02-26T18:04:10.693Z,97872.80
2019-02-26T18:06:37.044Z,97860.39
2019-02-26T18:09:04.262Z,97872.89
2019-02-26T18:11:30.662Z,97868.08
2019-02-26T18:14:00.227Z,97872.19
2019-02-26T18:16:27.173Z,97872.76
2019-02-26T18:18:53.475Z,97879.54
2019-02-26T18:21:19.914Z,97885.00
2019-02-26T18:23:46.223Z,97887.16
2019-02-26T18:26:12.605Z,97884.19
2019-02-26T18:28:39.304Z,97888.55
2019-02-26T18:31:06.026Z,97891.53
2019-02-26T18:33:35.588Z,97894.55
2019-02-26T18:36:00.544Z,97882.41
2019-02-26T18:38:26.866Z,97892.97
2019-02-26T18:40:53.392Z,97892.48
2019-02-26T18:43:20.763Z,97891.95
2019-02-26T18:45:47.311Z,97893.05
2019-02-26T18:48:15.099Z,97890.91
2019-02-26T18:50:42.059Z,97896.63
2019-02-26T18:53:08.490Z,97892.59
2019-02-26T18:55:35.065Z,97903.41
2019-02-26T18:58:01.497Z,97896.40
2019-02-26T19:00:32.130Z,97910.50
2019-02-26T19:02:58.460Z,97903.50
2019-02-26T19:05:25.195Z,97909.77
2019-02-26T19:07:51.583Z,97912.23
2019-02-26T19:10:20.896Z,97922.00
2019-02-26T19:12:47.148Z,97919.58
2019-02-26T19:15:25.821Z,97925.55
2019-02-26T19:17:53.415Z,97935.53
2019-02-26T19:20:24.515Z,97937.73
2019-02-26T19:22:52.013Z,97931.80
2019-02-26T19:25:19.802Z,97937.77
2019-02-26T19:27:46.295Z,97938.09
2019-02-26T19:30:20.827Z,97945.39
2019-02-26T19:32:48.321Z,97945.44
2019-02-26T19:35:14.794Z,97952.20
2019-02-26T19:37:46.909Z,97964.90
2019-02-26T19:40:22.566Z,97957.38
2019-02-26T19:42:52.677Z,97959.55
2019-02-26T19:45:17.594Z,97943.63
2019-02-26T19:47:44.022Z,97943.09
2019-02-26T19:50:14.823Z,97944.45
2019-02-26T19:52:41.335Z,97943.64
2019-02-26T19:55:16.342Z,97945.03
2019-02-26T19:57:42.943Z,97941.27
2019-02-26T20:00:12.986Z,97946.98
2019-02-26T20:02:39.374Z,97953.75
2019-02-26T20:05:12.222Z,97952.17
2019-02-26T20:07:38.697Z,97950.30
2019-02-26T20:10:15.755Z,97953.03
2019-02-26T20:12:42.137Z,97960.05
2019-02-26T20:15:13.122Z,97957.09
2019-02-26T20:17:39.339Z,97952.55
2019-02-26T20:20:13.834Z,97946.89
2019-02-26T20:22:40.158Z,97954.98
2019-02-26T20:25:10.784Z,97962.54
2019-02-26T20:27:37.080Z,97959.03
2019-02-26T20:30:12.406Z,97965.77
2019-02-26T20:32:39.606Z,97963.34
2019-02-26T20:35:11.545Z,97965.49
2019-02-26T20:37:37.566Z,97960.38
2019-02-26T20:40:19.284Z,97957.94
2019-02-26T20:42:45.713Z,97958.21
2019-02-26T20:45:18.184Z,97967.38
2019-02-26T20:47:46.200Z,97959.30
2019-02-26T20:50:12.375Z,97964.42
2019-02-26T20:52:38.787Z,97963.07
2019-02-26T20:55:10.764Z,97964.16
2019-02-26T20:57:37.699Z,97961.73
2019-02-26T21:00:12.578Z,97964.42
2019-02-26T21:02:38.902Z,97965.23
2019-02-26T21:05:07.336Z,97971.17
2019-02-26T21:07:33.723Z,97968.52
2019-02-26T21:10:03.812Z,97973.09
2019-02-26T21:12:29.409Z,97961.50
2019-02-26T21:14:55.863Z,97971.75
2019-02-26T21:17:25.635Z,97966.09
2019-02-26T21:19:51.166Z,97963.93
2019-02-26T21:22:19.778Z,97965.28
2019-02-26T21:24:47.464Z,97964.73
2019-02-26T21:27:13.943Z,97969.59
2019-02-26T21:29:41.614Z,97959.88
2019-02-26T21:32:08.380Z,97956.92
2019-02-26T21:34:34.962Z,97965.83
2019-02-26T21:37:01.292Z,97958.55
2019-02-26T21:39:27.603Z,97957.50
2019-02-26T21:41:56.356Z,97953.19
2019-02-26T21:44:22.841Z,97953.73
2019-02-26T21:46:49.162Z,97953.20
2019-02-26T21:49:15.552Z,97959.98
2019-02-26T21:51:42.217Z,97950.27
2019-02-26T21:54:08.825Z,97958.37
2019-02-26T21:56:35.228Z,97959.48
2019-02-26T21:59:01.655Z,97957.86
2019-02-26T22:01:27.964Z,97967.84
2019-02-26T22:03:55.797Z,97962.72
2019-02-26T22:06:22.576Z,97965.95
2019-02-26T22:08:49.167Z,97967.57
2019-02-26T22:11:15.824Z,97974.04
2019-02-26T22:13:43.935Z,97980.25
2019-02-26T22:16:10.224Z,97975.93
2019-02-26T22:18:36.883Z,97983.21
2019-02-26T22:21:03.335Z,97979.17
2019-02-26T22:23:34.017Z,97976.47
2019-02-26T22:25:58.313Z,97977.02
2019-02-26T22:28:25.851Z,97979.97
2019-02-26T22:30:55.718Z,97972.70
2019-02-26T22:33:21.051Z,97973.23
2019-02-26T22:35:47.343Z,97972.42
2019-02-26T22:38:15.463Z,97966.77
2019-02-26T22:40:42.374Z,97969.19
2019-02-26T22:43:08.774Z,97970.55
2019-02-26T22:45:35.363Z,97974.08
2019-02-26T22:48:01.842Z,97976.51
2019-02-26T22:50:28.237Z,97980.55
2019-02-26T22:52:54.638Z,97978.94
2019-02-26T22:55:21.168Z,97981.36
2019-02-26T22:57:47.470Z,97982.98
2019-02-26T23:00:30.189Z,97975.73
2019-02-26T23:02:56.703Z,97985.98
2019-02-26T23:05:25.459Z,97981.39
2019-02-26T23:07:51.710Z,97983.28
2019-02-26T23:10:18.003Z,97982.20
2019-02-26T23:12:44.466Z,97977.36
2019-02-26T23:15:11.974Z,97983.05
2019-02-26T23:17:39.087Z,97982.23
2019-02-26T23:20:07.606Z,97982.23
2019-02-26T23:22:33.960Z,97982.47
2019-02-26T23:25:01.015Z,97981.70
2019-02-26T23:27:28.156Z,97980.35
2019-02-26T23:29:54.480Z,97985.47
2019-02-26T23:32:20.830Z,97983.05
2019-02-26T23:35:03.778Z,97981.43
2019-02-26T23:37:34.304Z,97980.08
2019-02-26T23:39:58.422Z,97979.03
2019-02-26T23:42:25.083Z,97977.95
2019-02-26T23:44:51.599Z,97978.23
2019-02-26T23:47:17.885Z,97977.69
2019-02-26T23:49:44.914Z,97983.89
2019-02-26T23:52:12.530Z,97981.45
2019-02-26T23:54:39.941Z,97979.57
2019-02-26T23:57:06.896Z,97982.00
2019-02-26T23:59:34.798Z,97980.95
